Terminal Aerodrome Forecast
Issued by NWS Cleveland, OH

Home | Current Version | Previous Version | Text Only | Print | Product List | Glossary On
Versions: 1 2 3 4 5 6 7 8 9 10 11 12 13 14 15
195
FTUS41 KCLE 270542
TAFERI
TAF
KERI 270542Z 2706/2806 16012G20KT P6SM FEW100 BKN250
     FM271700 20015G25KT P6SM SCT050 OVC100
      TEMPO 2720/2722 5SM -TSRA BKN035CB OVC050
     FM272300 22012G22KT P6SM OVC050=

USA.gov is the U.S. government's official web portal to all federal, state and local government web resources and services.